sensor_id;sensor_type;location;lat;lon;timestamp;temperature;humidity
21627;DHT22;10975;47.872;12.972;2023-04-06T00:00:08;-1.00;99.90
21627;DHT22;10975;47.872;12.972;2023-04-06T00:02:35;-1.00;99.90
21627;DHT22;10975;47.872;12.972;2023-04-06T00:05:02;-1.00;99.90
21627;DHT22;10975;47.872;12.972;2023-04-06T00:07:30;-1.10;99.90
21627;DHT22;10975;47.872;12.972;2023-04-06T00:09:57;-1.10;99.90
21627;DHT22;10975;47.872;12.972;2023-04-06T00:12:24;-1.10;99.90
21627;DHT22;10975;47.872;12.972;2023-04-06T00:14:51;-1.10;99.90
21627;DHT22;10975;47.872;12.972;2023-04-06T00:17:18;-1.10;99.90
21627;DHT22;10975;47.872;12.972;2023-04-06T00:19:45;-1.10;99.90
21627;DHT22;10975;47.872;12.972;2023-04-06T00:22:11;-1.10;99.90
21627;DHT22;10975;47.872;12.972;2023-04-06T00:24:38;-1.20;99.90
21627;DHT22;10975;47.872;12.972;2023-04-06T00:27:05;-1.20;99.90
21627;DHT22;10975;47.872;12.972;2023-04-06T00:29:32;-1.20;99.90
21627;DHT22;10975;47.872;12.972;2023-04-06T00:32:00;-1.30;99.90
21627;DHT22;10975;47.872;12.972;2023-04-06T00:34:26;-1.30;99.90
21627;DHT22;10975;47.872;12.972;2023-04-06T00:36:53;-1.30;99.90
21627;DHT22;10975;47.872;12.972;2023-04-06T00:39:20;-1.30;99.90
21627;DHT22;10975;47.872;12.972;2023-04-06T00:41:49;-1.30;99.90
21627;DHT22;10975;47.872;12.972;2023-04-06T00:44:18;-1.30;99.90
21627;DHT22;10975;47.872;12.972;2023-04-06T00:46:45;-1.20;99.90
21627;DHT22;10975;47.872;12.972;2023-04-06T00:49:12;-1.20;99.90
21627;DHT22;10975;47.872;12.972;2023-04-06T00:51:39;-1.20;99.90
21627;DHT22;10975;47.872;12.972;2023-04-06T00:54:06;-1.30;99.90
21627;DHT22;10975;47.872;12.972;2023-04-06T00:56:33;-1.50;99.90
21627;DHT22;10975;47.872;12.972;2023-04-06T00:59:00;-1.50;99.90
21627;DHT22;10975;47.872;12.972;2023-04-06T01:01:29;-1.50;99.90
21627;DHT22;10975;47.872;12.972;2023-04-06T01:03:56;-1.50;99.90
21627;DHT22;10975;47.872;12.972;2023-04-06T01:06:22;-1.50;99.90
21627;DHT22;10975;47.872;12.972;2023-04-06T01:08:49;-1.50;99.90
21627;DHT22;10975;47.872;12.972;2023-04-06T01:11:17;-1.50;99.90
21627;DHT22;10975;47.872;12.972;2023-04-06T01:13:43;-1.60;99.90
21627;DHT22;10975;47.872;12.972;2023-04-06T01:16:10;-1.60;99.90
21627;DHT22;10975;47.872;12.972;2023-04-06T01:18:37;-1.60;99.90
21627;DHT22;10975;47.872;12.972;2023-04-06T01:21:04;-1.60;99.90
21627;DHT22;10975;47.872;12.972;2023-04-06T01:23:31;-1.60;99.90
21627;DHT22;10975;47.872;12.972;2023-04-06T01:25:57;-1.60;99.90
21627;DHT22;10975;47.872;12.972;2023-04-06T01:28:24;-1.60;99.90
21627;DHT22;10975;47.872;12.972;2023-04-06T01:30:51;-1.60;99.90
21627;DHT22;10975;47.872;12.972;2023-04-06T01:33:17;-1.60;99.90
21627;DHT22;10975;47.872;12.972;2023-04-06T01:35:44;-1.70;99.90
21627;DHT22;10975;47.872;12.972;2023-04-06T01:38:11;-1.80;99.90
21627;DHT22;10975;47.872;12.972;2023-04-06T01:40:38;-1.80;99.90
21627;DHT22;10975;47.872;12.972;2023-04-06T01:43:04;-1.80;99.90
21627;DHT22;10975;47.872;12.972;2023-04-06T01:45:31;-1.80;99.90
21627;DHT22;10975;47.872;12.972;2023-04-06T01:48:00;-1.80;99.90
21627;DHT22;10975;47.872;12.972;2023-04-06T01:50:26;-1.80;99.90
21627;DHT22;10975;47.872;12.972;2023-04-06T01:52:53;-1.80;99.90
21627;DHT22;10975;47.872;12.972;2023-04-06T01:55:21;-1.80;99.90
21627;DHT22;10975;47.872;12.972;2023-04-06T01:57:48;-1.90;99.90
21627;DHT22;10975;47.872;12.972;2023-04-06T02:00:15;-1.90;99.90
21627;DHT22;10975;47.872;12.972;2023-04-06T02:02:42;-1.90;99.90
21627;DHT22;10975;47.872;12.972;2023-04-06T02:05:09;-1.90;99.90
21627;DHT22;10975;47.872;12.972;2023-04-06T02:07:35;-1.90;99.90
21627;DHT22;10975;47.872;12.972;2023-04-06T02:10:02;-1.90;99.90
21627;DHT22;10975;47.872;12.972;2023-04-06T02:12:29;-1.90;99.90
21627;DHT22;10975;47.872;12.972;2023-04-06T02:14:56;-2.00;99.90
21627;DHT22;10975;47.872;12.972;2023-04-06T02:17:22;-2.00;99.90
21627;DHT22;10975;47.872;12.972;2023-04-06T02:19:49;-2.00;99.90
21627;DHT22;10975;47.872;12.972;2023-04-06T02:22:16;-2.00;99.90
21627;DHT22;10975;47.872;12.972;2023-04-06T02:24:43;-2.00;99.90
21627;DHT22;10975;47.872;12.972;2023-04-06T02:27:09;-2.00;99.90
21627;DHT22;10975;47.872;12.972;2023-04-06T02:29:36;-2.10;99.90
21627;DHT22;10975;47.872;12.972;2023-04-06T02:32:03;-2.20;99.90
21627;DHT22;10975;47.872;12.972;2023-04-06T02:34:30;-2.20;99.90
21627;DHT22;10975;47.872;12.972;2023-04-06T02:36:57;-2.30;99.90
21627;DHT22;10975;47.872;12.972;2023-04-06T02:39:23;-2.30;99.90
21627;DHT22;10975;47.872;12.972;2023-04-06T02:41:50;-2.30;99.90
21627;DHT22;10975;47.872;12.972;2023-04-06T02:44:17;-2.30;99.90
21627;DHT22;10975;47.872;12.972;2023-04-06T02:46:44;-2.30;99.90
21627;DHT22;10975;47.872;12.972;2023-04-06T02:49:11;-2.30;99.90
21627;DHT22;10975;47.872;12.972;2023-04-06T02:51:38;-2.30;99.90
21627;DHT22;10975;47.872;12.972;2023-04-06T02:54:04;-2.30;99.90
21627;DHT22;10975;47.872;12.972;2023-04-06T02:56:31;-2.30;99.90
21627;DHT22;10975;47.872;12.972;2023-04-06T02:58:58;-2.30;99.90
21627;DHT22;10975;47.872;12.972;2023-04-06T03:01:25;-2.30;99.90
21627;DHT22;10975;47.872;12.972;2023-04-06T03:03:52;-2.30;99.90
21627;DHT22;10975;47.872;12.972;2023-04-06T03:06:19;-2.30;99.90
21627;DHT22;10975;47.872;12.972;2023-04-06T03:08:46;-2.30;99.90
21627;DHT22;10975;47.872;12.972;2023-04-06T03:11:13;-2.30;99.90
21627;DHT22;10975;47.872;12.972;2023-04-06T03:13:40;-2.30;99.90
21627;DHT22;10975;47.872;12.972;2023-04-06T03:16:07;-2.30;99.90
21627;DHT22;10975;47.872;12.972;2023-04-06T03:18:33;-2.30;99.90
21627;DHT22;10975;47.872;12.972;2023-04-06T03:21:00;-2.30;99.90
21627;DHT22;10975;47.872;12.972;2023-04-06T03:23:27;-2.30;99.90
21627;DHT22;10975;47.872;12.972;2023-04-06T03:25:54;-2.30;99.90
21627;DHT22;10975;47.872;12.972;2023-04-06T03:28:20;-2.40;99.90
21627;DHT22;10975;47.872;12.972;2023-04-06T03:30:47;-2.40;99.90
21627;DHT22;10975;47.872;12.972;2023-04-06T03:33:14;-2.40;99.90
21627;DHT22;10975;47.872;12.972;2023-04-06T03:35:41;-2.40;99.90
21627;DHT22;10975;47.872;12.972;2023-04-06T03:38:08;-2.50;99.90
21627;DHT22;10975;47.872;12.972;2023-04-06T03:40:34;-2.50;99.90
21627;DHT22;10975;47.872;12.972;2023-04-06T03:43:01;-2.50;99.90
21627;DHT22;10975;47.872;12.972;2023-04-06T03:45:28;-2.50;99.90
21627;DHT22;10975;47.872;12.972;2023-04-06T03:47:54;-2.60;99.90
21627;DHT22;10975;47.872;12.972;2023-04-06T03:50:21;-2.60;99.90
21627;DHT22;10975;47.872;12.972;2023-04-06T03:52:48;-2.60;99.90
21627;DHT22;10975;47.872;12.972;2023-04-06T03:55:15;-2.60;99.90
21627;DHT22;10975;47.872;12.972;2023-04-06T03:57:42;-2.60;99.90
21627;DHT22;10975;47.872;12.972;2023-04-06T04:00:08;-2.60;99.90
21627;DHT22;10975;47.872;12.972;2023-04-06T04:02:35;-2.60;99.90
21627;DHT22;10975;47.872;12.972;2023-04-06T04:05:03;-2.60;99.90
21627;DHT22;10975;47.872;12.972;2023-04-06T04:07:29;-2.60;99.90
21627;DHT22;10975;47.872;12.972;2023-04-06T04:09:56;-2.60;99.90
21627;DHT22;10975;47.872;12.972;2023-04-06T04:12:23;-2.60;99.90
21627;DHT22;10975;47.872;12.972;2023-04-06T04:14:50;-2.70;99.90
21627;DHT22;10975;47.872;12.972;2023-04-06T04:17:17;-2.70;99.90
21627;DHT22;10975;47.872;12.972;2023-04-06T04:19:43;-2.70;99.90
21627;DHT22;10975;47.872;12.972;2023-04-06T04:22:10;-2.70;99.90
21627;DHT22;10975;47.872;12.972;2023-04-06T04:24:37;-2.70;99.90
21627;DHT22;10975;47.872;12.972;2023-04-06T04:27:03;-2.70;99.90
21627;DHT22;10975;47.872;12.972;2023-04-06T04:29:31;-2.70;99.90
21627;DHT22;10975;47.872;12.972;2023-04-06T04:31:58;-2.70;99.90
21627;DHT22;10975;47.872;12.972;2023-04-06T04:34:24;-2.80;99.90
21627;DHT22;10975;47.872;12.972;2023-04-06T04:36:52;-2.80;99.90
21627;DHT22;10975;47.872;12.972;2023-04-06T04:39:19;-2.80;99.90
21627;DHT22;10975;47.872;12.972;2023-04-06T04:41:46;-2.80;99.90
21627;DHT22;10975;47.872;12.972;2023-04-06T04:44:13;-2.80;99.90
21627;DHT22;10975;47.872;12.972;2023-04-06T04:46:39;-2.80;99.90
21627;DHT22;10975;47.872;12.972;2023-04-06T04:49:08;-2.80;99.90
21627;DHT22;10975;47.872;12.972;2023-04-06T04:51:35;-2.70;99.90
21627;DHT22;10975;47.872;12.972;2023-04-06T04:54:03;-2.70;99.90
21627;DHT22;10975;47.872;12.972;2023-04-06T04:56:29;-2.70;99.90
21627;DHT22;10975;47.872;12.972;2023-04-06T04:58:56;-2.70;99.90
21627;DHT22;10975;47.872;12.972;2023-04-06T05:01:23;-2.70;99.90
21627;DHT22;10975;47.872;12.972;2023-04-06T05:03:50;-2.60;99.90
21627;DHT22;10975;47.872;12.972;2023-04-06T05:06:17;-2.60;99.90
21627;DHT22;10975;47.872;12.972;2023-04-06T05:08:45;-2.50;99.90
21627;DHT22;10975;47.872;12.972;2023-04-06T05:11:12;-2.50;99.90
21627;DHT22;10975;47.872;12.972;2023-04-06T05:13:38;-2.50;99.90
21627;DHT22;10975;47.872;12.972;2023-04-06T05:16:05;-2.50;99.90
21627;DHT22;10975;47.872;12.972;2023-04-06T05:18:32;-2.40;99.90
21627;DHT22;10975;47.872;12.972;2023-04-06T05:20:59;-2.40;99.90
21627;DHT22;10975;47.872;12.972;2023-04-06T05:23:26;-2.30;99.90
21627;DHT22;10975;47.872;12.972;2023-04-06T05:25:53;-2.30;99.90
21627;DHT22;10975;47.872;12.972;2023-04-06T05:28:19;-2.30;99.90
21627;DHT22;10975;47.872;12.972;2023-04-06T05:30:46;-2.30;99.90
21627;DHT22;10975;47.872;12.972;2023-04-06T05:33:13;-2.20;99.90
21627;DHT22;10975;47.872;12.972;2023-04-06T05:35:40;-2.10;99.90
21627;DHT22;10975;47.872;12.972;2023-04-06T05:38:07;-2.10;99.90
21627;DHT22;10975;47.872;12.972;2023-04-06T05:40:34;-2.00;99.90
21627;DHT22;10975;47.872;12.972;2023-04-06T05:43:01;-2.00;99.90
21627;DHT22;10975;47.872;12.972;2023-04-06T05:45:29;-1.90;99.90
21627;DHT22;10975;47.872;12.972;2023-04-06T05:47:56;-1.90;99.90
21627;DHT22;10975;47.872;12.972;2023-04-06T05:50:23;-1.80;99.90
21627;DHT22;10975;47.872;12.972;2023-04-06T05:52:50;-1.80;99.90
21627;DHT22;10975;47.872;12.972;2023-04-06T05:55:16;-1.70;99.90
21627;DHT22;10975;47.872;12.972;2023-04-06T05:57:43;-1.70;99.90
21627;DHT22;10975;47.872;12.972;2023-04-06T06:00:10;-1.60;99.90
21627;DHT22;10975;47.872;12.972;2023-04-06T06:02:37;-1.60;99.90
21627;DHT22;10975;47.872;12.972;2023-04-06T06:05:04;-1.50;99.90
21627;DHT22;10975;47.872;12.972;2023-04-06T06:07:31;-1.50;99.90
21627;DHT22;10975;47.872;12.972;2023-04-06T06:09:58;-1.40;99.90
21627;DHT22;10975;47.872;12.972;2023-04-06T06:12:25;-1.30;99.90
21627;DHT22;10975;47.872;12.972;2023-04-06T06:14:51;-1.30;99.90
21627;DHT22;10975;47.872;12.972;2023-04-06T06:17:18;-1.20;99.90
21627;DHT22;10975;47.872;12.972;2023-04-06T06:19:45;-1.10;99.90
21627;DHT22;10975;47.872;12.972;2023-04-06T06:22:11;-1.10;99.90
21627;DHT22;10975;47.872;12.972;2023-04-06T06:24:38;-1.00;99.90
21627;DHT22;10975;47.872;12.972;2023-04-06T06:27:05;-0.90;99.90
21627;DHT22;10975;47.872;12.972;2023-04-06T06:29:31;-0.90;99.90
21627;DHT22;10975;47.872;12.972;2023-04-06T06:31:58;-0.80;99.90
21627;DHT22;10975;47.872;12.972;2023-04-06T06:34:25;-0.70;99.90
21627;DHT22;10975;47.872;12.972;2023-04-06T06:36:52;-0.60;99.90
21627;DHT22;10975;47.872;12.972;2023-04-06T06:39:21;-0.50;99.90
21627;DHT22;10975;47.872;12.972;2023-04-06T06:41:48;-0.40;99.90
21627;DHT22;10975;47.872;12.972;2023-04-06T06:44:14;-0.40;99.90
21627;DHT22;10975;47.872;12.972;2023-04-06T06:46:43;-0.30;99.90
21627;DHT22;10975;47.872;12.972;2023-04-06T06:49:09;-0.20;99.90
21627;DHT22;10975;47.872;12.972;2023-04-06T06:51:38;-0.20;99.90
21627;DHT22;10975;47.872;12.972;2023-04-06T06:54:05;-0.10;99.90
21627;DHT22;10975;47.872;12.972;2023-04-06T06:56:32;0.10;99.90
21627;DHT22;10975;47.872;12.972;2023-04-06T06:58:59;0.20;99.90
21627;DHT22;10975;47.872;12.972;2023-04-06T07:01:26;0.20;99.90
21627;DHT22;10975;47.872;12.972;2023-04-06T07:03:54;0.30;99.90
21627;DHT22;10975;47.872;12.972;2023-04-06T07:06:21;0.40;99.90
21627;DHT22;10975;47.872;12.972;2023-04-06T07:08:48;0.50;99.90
21627;DHT22;10975;47.872;12.972;2023-04-06T07:11:14;0.70;99.90
21627;DHT22;10975;47.872;12.972;2023-04-06T07:13:41;0.80;99.90
21627;DHT22;10975;47.872;12.972;2023-04-06T07:16:08;0.90;99.90
21627;DHT22;10975;47.872;12.972;2023-04-06T07:18:35;1.00;99.90
21627;DHT22;10975;47.872;12.972;2023-04-06T07:21:05;1.10;99.90
21627;DHT22;10975;47.872;12.972;2023-04-06T07:23:31;1.30;99.90
21627;DHT22;10975;47.872;12.972;2023-04-06T07:25:58;1.40;99.90
21627;DHT22;10975;47.872;12.972;2023-04-06T07:28:25;1.50;99.90
21627;DHT22;10975;47.872;12.972;2023-04-06T07:30:52;1.60;99.90
21627;DHT22;10975;47.872;12.972;2023-04-06T07:33:20;1.70;99.90
21627;DHT22;10975;47.872;12.972;2023-04-06T07:35:47;1.80;99.90
21627;DHT22;10975;47.872;12.972;2023-04-06T07:38:14;2.00;99.90
21627;DHT22;10975;47.872;12.972;2023-04-06T07:40:41;2.20;99.90
21627;DHT22;10975;47.872;12.972;2023-04-06T07:43:08;2.30;99.90
21627;DHT22;10975;47.872;12.972;2023-04-06T07:45:35;2.40;99.90
21627;DHT22;10975;47.872;12.972;2023-04-06T07:48:02;2.40;99.90
21627;DHT22;10975;47.872;12.972;2023-04-06T07:50:31;2.50;99.90
21627;DHT22;10975;47.872;12.972;2023-04-06T07:52:57;2.70;99.90
21627;DHT22;10975;47.872;12.972;2023-04-06T07:55:24;2.80;99.90
21627;DHT22;10975;47.872;12.972;2023-04-06T07:57:51;2.90;99.90
21627;DHT22;10975;47.872;12.972;2023-04-06T08:00:18;3.00;99.90
21627;DHT22;10975;47.872;12.972;2023-04-06T08:02:45;3.10;99.90
21627;DHT22;10975;47.872;12.972;2023-04-06T08:05:12;3.20;99.90
21627;DHT22;10975;47.872;12.972;2023-04-06T08:07:38;3.20;99.90
21627;DHT22;10975;47.872;12.972;2023-04-06T08:10:05;3.30;99.90
21627;DHT22;10975;47.872;12.972;2023-04-06T08:12:32;3.30;99.90
21627;DHT22;10975;47.872;12.972;2023-04-06T08:14:59;3.50;99.90
21627;DHT22;10975;47.872;12.972;2023-04-06T08:17:27;3.50;99.90
21627;DHT22;10975;47.872;12.972;2023-04-06T08:19:56;3.60;99.90
21627;DHT22;10975;47.872;12.972;2023-04-06T08:22:23;3.70;99.90
21627;DHT22;10975;47.872;12.972;2023-04-06T08:24:50;3.80;99.90
21627;DHT22;10975;47.872;12.972;2023-04-06T08:27:17;3.90;99.90
21627;DHT22;10975;47.872;12.972;2023-04-06T08:29:44;4.00;99.90
21627;DHT22;10975;47.872;12.972;2023-04-06T08:32:10;4.20;99.90
21627;DHT22;10975;47.872;12.972;2023-04-06T08:34:37;4.30;99.90
21627;DHT22;10975;47.872;12.972;2023-04-06T08:37:04;4.40;99.90
21627;DHT22;10975;47.872;12.972;2023-04-06T08:39:31;4.50;99.90
21627;DHT22;10975;47.872;12.972;2023-04-06T08:42:00;4.60;99.90
21627;DHT22;10975;47.872;12.972;2023-04-06T08:44:29;4.70;99.90
21627;DHT22;10975;47.872;12.972;2023-04-06T08:46:59;4.70;99.90
21627;DHT22;10975;47.872;12.972;2023-04-06T08:49:25;4.70;99.90
21627;DHT22;10975;47.872;12.972;2023-04-06T08:51:52;4.90;99.90
21627;DHT22;10975;47.872;12.972;2023-04-06T08:54:19;5.00;99.90
21627;DHT22;10975;47.872;12.972;2023-04-06T08:56:47;5.00;99.90
21627;DHT22;10975;47.872;12.972;2023-04-06T08:59:14;5.00;99.90
21627;DHT22;10975;47.872;12.972;2023-04-06T09:01:42;5.10;99.90
21627;DHT22;10975;47.872;12.972;2023-04-06T09:04:09;5.20;99.90
21627;DHT22;10975;47.872;12.972;2023-04-06T09:06:39;5.20;99.90
21627;DHT22;10975;47.872;12.972;2023-04-06T09:09:07;5.30;99.90
21627;DHT22;10975;47.872;12.972;2023-04-06T09:11:44;5.50;99.90
21627;DHT22;10975;47.872;12.972;2023-04-06T09:14:11;5.60;99.90
21627;DHT22;10975;47.872;12.972;2023-04-06T09:16:39;5.80;99.90
21627;DHT22;10975;47.872;12.972;2023-04-06T09:19:06;5.80;99.90
21627;DHT22;10975;47.872;12.972;2023-04-06T09:21:33;5.80;99.90
21627;DHT22;10975;47.872;12.972;2023-04-06T09:24:00;5.80;99.90
21627;DHT22;10975;47.872;12.972;2023-04-06T09:26:28;5.90;99.90
21627;DHT22;10975;47.872;12.972;2023-04-06T09:28:58;6.00;99.90
21627;DHT22;10975;47.872;12.972;2023-04-06T09:31:28;6.10;99.90
21627;DHT22;10975;47.872;12.972;2023-04-06T09:33:56;6.30;99.90
21627;DHT22;10975;47.872;12.972;2023-04-06T09:36:33;6.40;99.90
21627;DHT22;10975;47.872;12.972;2023-04-06T09:39:01;6.40;99.90
21627;DHT22;10975;47.872;12.972;2023-04-06T09:41:32;6.60;99.90
21627;DHT22;10975;47.872;12.972;2023-04-06T09:44:06;6.50;99.90
21627;DHT22;10975;47.872;12.972;2023-04-06T09:46:40;6.50;99.90
21627;DHT22;10975;47.872;12.972;2023-04-06T09:49:28;6.60;99.90
21627;DHT22;10975;47.872;12.972;2023-04-06T09:51:58;6.80;99.90
21627;DHT22;10975;47.872;12.972;2023-04-06T09:54:26;6.80;99.90
21627;DHT22;10975;47.872;12.972;2023-04-06T09:57:37;6.80;99.90
21627;DHT22;10975;47.872;12.972;2023-04-06T09:59:48;6.60;99.90
21627;DHT22;10975;47.872;12.972;2023-04-06T10:04:53;6.70;99.90
21627;DHT22;10975;47.872;12.972;2023-04-06T10:07:23;6.70;99.90
21627;DHT22;10975;47.872;12.972;2023-04-06T10:09:58;6.70;99.90
21627;DHT22;10975;47.872;12.972;2023-04-06T10:12:25;6.80;99.90
21627;DHT22;10975;47.872;12.972;2023-04-06T10:14:52;6.90;99.90
21627;DHT22;10975;47.872;12.972;2023-04-06T10:17:19;7.20;99.90
21627;DHT22;10975;47.872;12.972;2023-04-06T10:19:49;7.20;99.90
21627;DHT22;10975;47.872;12.972;2023-04-06T10:22:24;7.00;99.90
21627;DHT22;10975;47.872;12.972;2023-04-06T10:24:52;7.00;99.90
21627;DHT22;10975;47.872;12.972;2023-04-06T10:27:27;7.40;99.90
21627;DHT22;10975;47.872;12.972;2023-04-06T10:29:53;7.30;99.90
21627;DHT22;10975;47.872;12.972;2023-04-06T10:32:31;7.30;99.90
21627;DHT22;10975;47.872;12.972;2023-04-06T10:35:08;7.40;99.90
21627;DHT22;10975;47.872;12.972;2023-04-06T10:37:52;7.50;99.90
21627;DHT22;10975;47.872;12.972;2023-04-06T10:40:20;7.50;99.90
21627;DHT22;10975;47.872;12.972;2023-04-06T10:42:48;7.70;99.90
21627;DHT22;10975;47.872;12.972;2023-04-06T10:45:18;7.90;99.90
21627;DHT22;10975;47.872;12.972;2023-04-06T10:47:46;7.80;99.90
21627;DHT22;10975;47.872;12.972;2023-04-06T10:50:15;8.20;99.90
21627;DHT22;10975;47.872;12.972;2023-04-06T10:52:44;8.30;99.90
21627;DHT22;10975;47.872;12.972;2023-04-06T10:55:11;8.30;99.90
21627;DHT22;10975;47.872;12.972;2023-04-06T10:57:39;8.20;99.90
21627;DHT22;10975;47.872;12.972;2023-04-06T11:00:06;8.30;99.90
21627;DHT22;10975;47.872;12.972;2023-04-06T11:02:35;8.10;99.90
21627;DHT22;10975;47.872;12.972;2023-04-06T11:05:04;8.10;98.30
21627;DHT22;10975;47.872;12.972;2023-04-06T11:07:31;8.00;99.90
21627;DHT22;10975;47.872;12.972;2023-04-06T11:10:01;7.90;99.80
21627;DHT22;10975;47.872;12.972;2023-04-06T11:12:31;7.90;99.90
21627;DHT22;10975;47.872;12.972;2023-04-06T11:14:59;8.30;99.90
21627;DHT22;10975;47.872;12.972;2023-04-06T11:17:33;8.60;99.90
21627;DHT22;10975;47.872;12.972;2023-04-06T11:20:00;8.60;99.80
21627;DHT22;10975;47.872;12.972;2023-04-06T11:22:27;8.60;99.90
21627;DHT22;10975;47.872;12.972;2023-04-06T11:25:04;8.70;99.90
21627;DHT22;10975;47.872;12.972;2023-04-06T11:27:31;8.60;99.90
21627;DHT22;10975;47.872;12.972;2023-04-06T11:30:00;8.50;98.80
21627;DHT22;10975;47.872;12.972;2023-04-06T11:32:27;8.40;99.30
21627;DHT22;10975;47.872;12.972;2023-04-06T11:34:54;8.40;99.40
21627;DHT22;10975;47.872;12.972;2023-04-06T11:37:21;8.70;99.50
21627;DHT22;10975;47.872;12.972;2023-04-06T11:39:51;8.70;99.50
21627;DHT22;10975;47.872;12.972;2023-04-06T11:42:22;8.50;99.90
21627;DHT22;10975;47.872;12.972;2023-04-06T11:44:56;8.50;99.90
21627;DHT22;10975;47.872;12.972;2023-04-06T11:47:30;8.70;98.20
21627;DHT22;10975;47.872;12.972;2023-04-06T11:50:05;8.50;99.40
21627;DHT22;10975;47.872;12.972;2023-04-06T11:52:32;8.60;98.60
21627;DHT22;10975;47.872;12.972;2023-04-06T11:55:09;8.90;99.90
21627;DHT22;10975;47.872;12.972;2023-04-06T11:57:37;9.00;98.80
21627;DHT22;10975;47.872;12.972;2023-04-06T12:00:04;9.10;99.70
21627;DHT22;10975;47.872;12.972;2023-04-06T12:02:30;9.10;98.90
21627;DHT22;10975;47.872;12.972;2023-04-06T12:04:58;9.50;98.00
21627;DHT22;10975;47.872;12.972;2023-04-06T12:07:25;9.60;98.50
21627;DHT22;10975;47.872;12.972;2023-04-06T12:09:52;9.70;97.70
21627;DHT22;10975;47.872;12.972;2023-04-06T12:12:19;9.40;97.50
21627;DHT22;10975;47.872;12.972;2023-04-06T12:14:46;9.40;99.30
21627;DHT22;10975;47.872;12.972;2023-04-06T12:17:12;9.30;99.20
21627;DHT22;10975;47.872;12.972;2023-04-06T12:19:39;9.60;98.40
21627;DHT22;10975;47.872;12.972;2023-04-06T12:22:07;9.70;99.90
21627;DHT22;10975;47.872;12.972;2023-04-06T12:24:34;9.70;98.50
21627;DHT22;10975;47.872;12.972;2023-04-06T12:27:00;9.80;98.30
21627;DHT22;10975;47.872;12.972;2023-04-06T12:29:36;9.70;98.10
21627;DHT22;10975;47.872;12.972;2023-04-06T12:32:03;9.60;98.10
21627;DHT22;10975;47.872;12.972;2023-04-06T12:34:30;9.60;97.90
21627;DHT22;10975;47.872;12.972;2023-04-06T12:36:56;9.40;99.60
21627;DHT22;10975;47.872;12.972;2023-04-06T12:39:23;9.40;97.70
21627;DHT22;10975;47.872;12.972;2023-04-06T12:41:50;9.60;99.90
21627;DHT22;10975;47.872;12.972;2023-04-06T12:44:17;9.90;97.90
21627;DHT22;10975;47.872;12.972;2023-04-06T12:46:43;9.90;97.00
21627;DHT22;10975;47.872;12.972;2023-04-06T12:49:12;9.80;97.00
21627;DHT22;10975;47.872;12.972;2023-04-06T12:51:39;10.00;97.90
21627;DHT22;10975;47.872;12.972;2023-04-06T12:54:06;10.20;97.30
21627;DHT22;10975;47.872;12.972;2023-04-06T12:56:33;10.00;97.10
21627;DHT22;10975;47.872;12.972;2023-04-06T12:58:59;9.90;96.70
21627;DHT22;10975;47.872;12.972;2023-04-06T13:01:27;10.00;95.50
21627;DHT22;10975;47.872;12.972;2023-04-06T13:03:55;9.90;95.30
21627;DHT22;10975;47.872;12.972;2023-04-06T13:06:22;9.80;97.10
21627;DHT22;10975;47.872;12.972;2023-04-06T13:08:49;9.70;96.30
21627;DHT22;10975;47.872;12.972;2023-04-06T13:11:26;10.00;97.00
21627;DHT22;10975;47.872;12.972;2023-04-06T13:20:47;10.40;97.10
21627;DHT22;10975;47.872;12.972;2023-04-06T13:23:14;10.40;95.70
21627;DHT22;10975;47.872;12.972;2023-04-06T13:28:34;10.40;95.30
21627;DHT22;10975;47.872;12.972;2023-04-06T13:31:01;10.40;95.20
21627;DHT22;10975;47.872;12.972;2023-04-06T13:33:29;10.70;96.70
21627;DHT22;10975;47.872;12.972;2023-04-06T13:35:57;11.00;96.00
21627;DHT22;10975;47.872;12.972;2023-04-06T13:38:24;11.20;96.50
21627;DHT22;10975;47.872;12.972;2023-04-06T13:40:50;11.20;95.70
21627;DHT22;10975;47.872;12.972;2023-04-06T13:43:17;11.20;96.10
21627;DHT22;10975;47.872;12.972;2023-04-06T13:45:50;10.70;93.80
21627;DHT22;10975;47.872;12.972;2023-04-06T13:48:17;10.60;95.60
21627;DHT22;10975;47.872;12.972;2023-04-06T13:50:44;10.60;94.80
21627;DHT22;10975;47.872;12.972;2023-04-06T13:53:12;10.70;95.20
21627;DHT22;10975;47.872;12.972;2023-04-06T13:55:39;10.90;94.40
21627;DHT22;10975;47.872;12.972;2023-04-06T13:58:06;11.00;94.40
21627;DHT22;10975;47.872;12.972;2023-04-06T14:00:32;11.30;95.60
21627;DHT22;10975;47.872;12.972;2023-04-06T14:02:59;11.20;95.50
21627;DHT22;10975;47.872;12.972;2023-04-06T14:05:30;11.30;93.70
21627;DHT22;10975;47.872;12.972;2023-04-06T14:07:56;11.10;93.40
21627;DHT22;10975;47.872;12.972;2023-04-06T14:10:23;10.90;95.00
21627;DHT22;10975;47.872;12.972;2023-04-06T14:12:54;10.80;93.60
21627;DHT22;10975;47.872;12.972;2023-04-06T14:15:20;10.70;93.20
21627;DHT22;10975;47.872;12.972;2023-04-06T14:17:48;10.70;95.40
21627;DHT22;10975;47.872;12.972;2023-04-06T14:20:15;10.90;93.40
21627;DHT22;10975;47.872;12.972;2023-04-06T14:22:42;10.80;92.60
21627;DHT22;10975;47.872;12.972;2023-04-06T14:25:09;10.70;94.20
21627;DHT22;10975;47.872;12.972;2023-04-06T14:27:38;11.20;93.10
21627;DHT22;10975;47.872;12.972;2023-04-06T14:30:04;11.20;92.50
21627;DHT22;10975;47.872;12.972;2023-04-06T14:32:32;11.00;92.50
21627;DHT22;10975;47.872;12.972;2023-04-06T14:34:58;11.00;93.40
21627;DHT22;10975;47.872;12.972;2023-04-06T14:37:26;11.00;93.70
21627;DHT22;10975;47.872;12.972;2023-04-06T14:39:53;11.10;94.30
21627;DHT22;10975;47.872;12.972;2023-04-06T14:42:20;11.30;92.80
21627;DHT22;10975;47.872;12.972;2023-04-06T14:44:46;11.10;92.40
21627;DHT22;10975;47.872;12.972;2023-04-06T14:47:15;10.70;90.80
21627;DHT22;10975;47.872;12.972;2023-04-06T14:49:47;10.60;91.90
21627;DHT22;10975;47.872;12.972;2023-04-06T14:52:14;10.70;93.80
21627;DHT22;10975;47.872;12.972;2023-04-06T14:54:40;10.70;94.10
21627;DHT22;10975;47.872;12.972;2023-04-06T14:57:07;10.90;93.60
21627;DHT22;10975;47.872;12.972;2023-04-06T14:59:34;11.00;94.20
21627;DHT22;10975;47.872;12.972;2023-04-06T15:02:05;11.20;92.40
21627;DHT22;10975;47.872;12.972;2023-04-06T15:04:35;11.10;93.10
21627;DHT22;10975;47.872;12.972;2023-04-06T15:07:03;11.00;93.00
21627;DHT22;10975;47.872;12.972;2023-04-06T15:09:30;11.00;93.40
21627;DHT22;10975;47.872;12.972;2023-04-06T15:11:57;10.90;92.70
21627;DHT22;10975;47.872;12.972;2023-04-06T15:14:23;10.90;92.00
21627;DHT22;10975;47.872;12.972;2023-04-06T15:16:50;10.90;92.40
21627;DHT22;10975;47.872;12.972;2023-04-06T15:19:17;10.90;92.00
21627;DHT22;10975;47.872;12.972;2023-04-06T15:21:43;11.00;92.20
21627;DHT22;10975;47.872;12.972;2023-04-06T15:24:10;11.00;92.60
21627;DHT22;10975;47.872;12.972;2023-04-06T15:26:37;11.10;91.60
21627;DHT22;10975;47.872;12.972;2023-04-06T15:29:03;11.00;92.00
21627;DHT22;10975;47.872;12.972;2023-04-06T15:31:33;10.80;92.70
21627;DHT22;10975;47.872;12.972;2023-04-06T15:34:04;10.70;93.00
21627;DHT22;10975;47.872;12.972;2023-04-06T15:36:31;10.70;92.10